createdAt,value
2019-05-20T00:01:53.369Z,2.40
2019-05-20T00:04:22.565Z,2.80
2019-05-20T00:06:51.865Z,3.00
2019-05-20T00:09:21.061Z,3.10
2019-05-20T00:11:49.896Z,3.30
2019-05-20T00:14:18.752Z,3.90
2019-05-20T00:16:47.681Z,3.23
2019-05-20T00:19:16.930Z,2.83
2019-05-20T00:21:45.849Z,2.80
2019-05-20T00:24:15.227Z,2.90
2019-05-20T00:26:44.329Z,2.80
2019-05-20T00:29:13.370Z,2.70
2019-05-20T00:31:42.232Z,2.33
2019-05-20T00:34:11.402Z,2.30
2019-05-20T00:36:40.241Z,3.00
2019-05-20T00:39:16.374Z,2.60
2019-05-20T00:41:45.574Z,2.67
2019-05-20T00:44:14.753Z,2.90
2019-05-20T00:46:43.738Z,2.57
2019-05-20T00:49:12.736Z,2.90
2019-05-20T00:51:41.732Z,3.23
2019-05-20T00:54:11.021Z,3.30
2019-05-20T00:56:39.925Z,3.00
2019-05-20T00:59:09.021Z,3.10
2019-05-20T01:01:37.960Z,3.27
2019-05-20T01:04:06.984Z,3.17
2019-05-20T01:06:36.212Z,2.97
2019-05-20T01:09:07.533Z,2.70
2019-05-20T01:11:36.520Z,2.70
2019-05-20T01:14:05.677Z,3.30
2019-05-20T01:16:34.668Z,3.00
2019-05-20T01:19:03.861Z,3.00
2019-05-20T01:21:32.692Z,3.17
2019-05-20T01:24:01.990Z,3.00
2019-05-20T01:26:31.041Z,2.70
2019-05-20T01:28:59.961Z,3.37
2019-05-20T01:31:28.827Z,3.20
2019-05-20T01:33:57.677Z,3.00
2019-05-20T01:36:26.586Z,2.83
2019-05-20T01:38:55.587Z,3.27
2019-05-20T01:41:24.846Z,3.27
2019-05-20T01:43:53.845Z,3.20
2019-05-20T01:46:22.764Z,3.10
2019-05-20T01:48:51.701Z,2.70
2019-05-20T01:51:20.953Z,3.30
2019-05-20T01:53:49.884Z,2.40
2019-05-20T01:56:18.712Z,3.30
2019-05-20T01:58:47.869Z,2.80
2019-05-20T02:01:16.784Z,2.83
2019-05-20T02:03:45.789Z,3.30
2019-05-20T02:06:15.022Z,3.00
2019-05-20T02:08:43.968Z,2.60
2019-05-20T02:11:12.874Z,2.60
2019-05-20T02:13:54.622Z,2.90
2019-05-20T02:16:24.173Z,3.53
2019-05-20T02:18:53.305Z,3.40
2019-05-20T02:21:22.240Z,2.70
2019-05-20T02:23:51.490Z,3.50
2019-05-20T02:26:20.644Z,3.00
2019-05-20T02:28:49.876Z,2.80
2019-05-20T02:31:19.038Z,3.47
2019-05-20T02:33:52.300Z,3.80
2019-05-20T02:36:18.759Z,3.63
2019-05-20T02:38:48.078Z,4.00
2019-05-20T02:41:16.922Z,4.10
2019-05-20T02:43:45.763Z,4.13
2019-05-20T02:46:14.766Z,4.10
2019-05-20T02:48:44.100Z,4.80
2019-05-20T02:51:13.086Z,4.37
2019-05-20T02:53:42.000Z,4.70
2019-05-20T02:56:11.002Z,4.73
2019-05-20T02:58:39.915Z,4.37
2019-05-20T03:01:08.919Z,4.23
2019-05-20T03:03:37.758Z,5.60
2019-05-20T03:06:06.603Z,5.30
2019-05-20T03:08:35.783Z,4.63
2019-05-20T03:11:04.777Z,5.00
2019-05-20T03:13:33.770Z,4.90
2019-05-20T03:16:02.631Z,4.30
2019-05-20T03:18:31.609Z,4.83
2019-05-20T03:21:00.457Z,5.20
2019-05-20T03:23:29.447Z,5.10
2019-05-20T03:25:58.381Z,5.97
2019-05-20T03:28:27.318Z,5.10
2019-05-20T03:30:56.279Z,6.33
2019-05-20T03:33:25.336Z,6.20
2019-05-20T03:35:54.326Z,6.40
2019-05-20T03:38:23.319Z,6.40
2019-05-20T03:40:52.241Z,6.47
2019-05-20T03:43:21.526Z,7.13
2019-05-20T03:45:50.381Z,6.67
2019-05-20T03:48:19.213Z,6.00
2019-05-20T03:50:48.664Z,6.20
2019-05-20T03:53:17.509Z,6.50
2019-05-20T03:55:46.410Z,7.60
2019-05-20T03:58:15.804Z,6.73
2019-05-20T04:00:46.313Z,6.40
2019-05-20T04:03:15.968Z,6.63
2019-05-20T04:05:45.399Z,6.73
2019-05-20T04:08:15.014Z,6.07
2019-05-20T04:10:44.114Z,6.70
2019-05-20T04:13:14.902Z,6.17
2019-05-20T04:15:43.754Z,5.90
2019-05-20T04:18:12.703Z,6.03
2019-05-20T04:20:41.546Z,6.33
2019-05-20T04:23:10.400Z,5.43
2019-05-20T04:25:39.639Z,5.90
2019-05-20T04:28:08.643Z,5.60
2019-05-20T04:30:37.628Z,5.00
2019-05-20T04:33:06.571Z,5.10
2019-05-20T04:35:35.564Z,5.13
2019-05-20T04:38:04.616Z,5.20
2019-05-20T04:40:33.810Z,5.30
2019-05-20T04:43:02.753Z,5.43
2019-05-20T04:45:31.672Z,5.80
2019-05-20T04:48:00.923Z,5.77
2019-05-20T04:50:29.754Z,5.57
2019-05-20T04:52:58.612Z,5.90
2019-05-20T04:55:27.521Z,5.70
2019-05-20T04:57:56.377Z,5.90
2019-05-20T05:00:54.317Z,4.93
2019-05-20T05:03:23.442Z,5.60
2019-05-20T05:05:52.833Z,5.10
2019-05-20T05:08:22.208Z,4.60
2019-05-20T05:10:51.865Z,4.10
2019-05-20T05:13:21.556Z,3.87
2019-05-20T05:15:50.537Z,4.30
2019-05-20T05:18:19.924Z,4.70
2019-05-20T05:20:49.202Z,4.70
2019-05-20T05:23:18.209Z,4.80
2019-05-20T05:25:47.554Z,4.73
2019-05-20T05:28:16.558Z,4.47
2019-05-20T05:30:47.216Z,4.53
2019-05-20T05:33:16.777Z,3.90
2019-05-20T05:35:53.113Z,3.93
2019-05-20T05:38:17.060Z,4.07
2019-05-20T05:40:45.910Z,4.03
2019-05-20T05:43:16.491Z,4.27
2019-05-20T05:45:45.342Z,4.37
2019-05-20T05:48:14.351Z,4.50
2019-05-20T05:50:43.633Z,4.50
2019-05-20T05:53:12.775Z,3.60
2019-05-20T05:55:42.046Z,3.07
2019-05-20T05:58:10.981Z,3.40
2019-05-20T06:00:39.988Z,3.30
2019-05-20T06:03:08.998Z,2.83
2019-05-20T06:05:37.850Z,3.40
2019-05-20T06:08:06.778Z,3.10
2019-05-20T06:10:36.070Z,3.60
2019-05-20T06:13:05.258Z,3.67
2019-05-20T06:15:34.597Z,3.73
2019-05-20T06:18:03.885Z,3.00
2019-05-20T06:20:32.889Z,2.63
2019-05-20T06:23:01.828Z,3.30
2019-05-20T06:25:30.823Z,2.77
2019-05-20T06:27:59.682Z,2.30
2019-05-20T06:30:38.324Z,2.40
2019-05-20T06:33:07.349Z,2.70
2019-05-20T06:35:36.337Z,2.40
2019-05-20T06:38:07.832Z,2.03
2019-05-20T06:40:37.114Z,2.67
2019-05-20T06:43:06.045Z,2.27
2019-05-20T06:45:34.968Z,3.00
2019-05-20T06:48:04.278Z,2.63
2019-05-20T06:50:33.601Z,3.50
2019-05-20T06:53:02.457Z,3.23
2019-05-20T06:55:31.458Z,3.27
2019-05-20T06:58:00.814Z,3.10
2019-05-20T07:00:34.779Z,3.00
2019-05-20T07:03:03.973Z,3.30
2019-05-20T07:05:33.690Z,3.33
2019-05-20T07:08:02.686Z,3.40
2019-05-20T07:10:31.617Z,3.37
2019-05-20T07:13:00.541Z,3.43
2019-05-20T07:15:29.472Z,3.13
2019-05-20T07:17:58.606Z,2.90
2019-05-20T07:20:27.533Z,3.10
2019-05-20T07:22:57.212Z,3.23
2019-05-20T07:25:26.488Z,3.50
2019-05-20T07:27:55.381Z,3.20
2019-05-20T07:30:24.466Z,3.53
2019-05-20T07:32:53.405Z,3.90
2019-05-20T07:35:30.358Z,5.00
2019-05-20T07:37:53.096Z,4.97
2019-05-20T07:40:32.453Z,4.63
2019-05-20T07:43:01.943Z,4.57
2019-05-20T07:45:33.912Z,5.20
2019-05-20T07:48:03.878Z,5.23
2019-05-20T07:50:34.901Z,5.73
2019-05-20T07:53:04.198Z,6.10
2019-05-20T07:55:36.433Z,6.10
2019-05-20T07:58:08.145Z,7.10
2019-05-20T08:00:37.647Z,6.90
2019-05-20T08:03:06.564Z,7.90
2019-05-20T08:05:35.564Z,6.20
2019-05-20T08:08:04.557Z,6.93
2019-05-20T08:10:33.854Z,6.97
2019-05-20T08:13:02.781Z,6.70
2019-05-20T08:15:31.785Z,6.70
2019-05-20T08:18:00.778Z,6.50
2019-05-20T08:20:29.701Z,7.20
2019-05-20T08:22:58.685Z,7.50
2019-05-20T08:25:27.689Z,7.37
2019-05-20T08:27:56.924Z,7.80
2019-05-20T08:30:32.935Z,7.73
2019-05-20T08:33:01.885Z,6.63
2019-05-20T08:35:30.809Z,6.07
2019-05-20T08:37:59.653Z,5.20
2019-05-20T08:40:28.660Z,5.30
2019-05-20T08:42:57.570Z,11.97
2019-05-20T08:45:26.573Z,7.73
2019-05-20T08:47:55.429Z,7.03
2019-05-20T08:50:24.354Z,6.60
2019-05-20T08:52:53.323Z,6.30
2019-05-20T08:55:22.356Z,5.60
2019-05-20T08:57:51.374Z,6.63
2019-05-20T09:00:23.229Z,6.20
2019-05-20T09:02:52.273Z,6.30
2019-05-20T09:05:21.276Z,7.07
2019-05-20T09:08:02.343Z,6.60
2019-05-20T09:10:20.917Z,7.13
2019-05-20T09:12:49.829Z,6.80
2019-05-20T09:15:19.128Z,7.00
2019-05-20T09:17:48.042Z,6.37
2019-05-20T09:20:17.057Z,6.97
2019-05-20T09:22:45.909Z,7.80
2019-05-20T09:25:15.799Z,7.23
2019-05-20T09:27:44.648Z,7.27
2019-05-20T09:30:13.872Z,7.37
2019-05-20T09:32:43.443Z,7.63
2019-05-20T09:35:12.944Z,6.97
2019-05-20T09:37:42.264Z,7.03
2019-05-20T09:40:11.380Z,6.87
2019-05-20T09:42:41.174Z,6.60
2019-05-20T09:45:10.874Z,6.83
2019-05-20T09:47:39.802Z,6.40
2019-05-20T09:50:09.275Z,6.47
2019-05-20T09:52:38.281Z,7.27
2019-05-20T09:55:07.528Z,6.93
2019-05-20T09:57:36.474Z,6.13
2019-05-20T10:00:06.807Z,5.93
2019-05-20T10:02:38.255Z,6.23
2019-05-20T10:05:06.597Z,7.20
2019-05-20T10:07:35.546Z,7.00
2019-05-20T10:10:04.833Z,6.83
2019-05-20T10:12:45.271Z,7.07
2019-05-20T10:15:04.534Z,6.80
2019-05-20T10:17:33.461Z,6.67
2019-05-20T10:20:02.499Z,6.63
2019-05-20T10:22:31.466Z,7.13
2019-05-20T10:25:00.704Z,6.30
2019-05-20T10:27:29.995Z,7.30
2019-05-20T10:29:59.214Z,8.47
2019-05-20T10:32:28.141Z,9.53
2019-05-20T10:34:56.987Z,8.90
2019-05-20T10:37:25.939Z,9.13
2019-05-20T10:39:54.985Z,8.10
2019-05-20T10:42:24.254Z,8.30
2019-05-20T10:44:53.309Z,8.80
2019-05-20T10:47:22.565Z,9.00
2019-05-20T10:49:51.406Z,9.60
2019-05-20T10:52:20.419Z,8.63
2019-05-20T10:54:49.356Z,8.73
2019-05-20T10:57:18.649Z,8.57
2019-05-20T10:59:47.501Z,10.20
2019-05-20T11:02:16.437Z,10.20
2019-05-20T11:04:45.288Z,10.57
2019-05-20T11:07:14.221Z,9.87
2019-05-20T11:09:43.073Z,10.23
2019-05-20T11:12:11.922Z,9.43
2019-05-20T11:14:41.328Z,11.37
2019-05-20T11:17:10.315Z,12.90
2019-05-20T11:19:39.160Z,13.50
2019-05-20T11:22:08.157Z,16.97
2019-05-20T11:24:37.005Z,16.53
2019-05-20T11:27:06.359Z,16.87
2019-05-20T11:29:35.212Z,17.33
2019-05-20T11:32:04.550Z,18.77
2019-05-20T11:34:33.452Z,19.30
2019-05-20T11:37:02.754Z,19.47
2019-05-20T11:39:33.986Z,18.73
2019-05-20T11:42:02.790Z,18.63
2019-05-20T11:44:31.969Z,17.73
2019-05-20T11:47:00.895Z,17.77
2019-05-20T11:49:29.916Z,20.93
2019-05-20T11:51:59.022Z,19.50
2019-05-20T11:54:28.079Z,18.87
2019-05-20T11:56:57.360Z,18.70
2019-05-20T11:59:26.481Z,19.67
2019-05-20T12:01:55.973Z,18.97
2019-05-20T12:04:24.848Z,18.97
2019-05-20T12:06:53.695Z,18.43
2019-05-20T12:09:23.155Z,16.30
2019-05-20T12:11:52.500Z,18.30
2019-05-20T12:14:21.701Z,17.70
2019-05-20T12:16:50.618Z,17.40
2019-05-20T12:19:20.031Z,17.90
2019-05-20T12:21:49.225Z,17.27
2019-05-20T12:24:18.453Z,15.20
2019-05-20T12:26:47.436Z,16.77
2019-05-20T12:29:17.034Z,16.77
2019-05-20T12:31:46.040Z,16.13
2019-05-20T12:34:15.221Z,17.50
2019-05-20T12:36:44.133Z,16.70
2019-05-20T12:39:13.068Z,15.50
2019-05-20T12:41:41.941Z,16.50
2019-05-20T12:44:13.123Z,17.10
2019-05-20T12:46:41.722Z,15.60
2019-05-20T12:49:10.905Z,16.43
2019-05-20T12:51:40.620Z,14.83
2019-05-20T12:54:09.650Z,16.30
2019-05-20T12:56:38.622Z,15.43
2019-05-20T12:59:07.565Z,16.00
2019-05-20T13:01:36.688Z,15.53
2019-05-20T13:04:05.783Z,15.27
2019-05-20T13:06:35.123Z,15.87
2019-05-20T13:09:05.245Z,15.77
2019-05-20T13:11:34.177Z,14.73
2019-05-20T13:14:03.130Z,15.00
2019-05-20T13:16:32.092Z,13.33
2019-05-20T13:19:00.954Z,12.97
2019-05-20T13:21:30.092Z,13.83
2019-05-20T13:23:58.953Z,15.40
2019-05-20T13:26:27.951Z,14.83
2019-05-20T13:28:59.616Z,13.70
2019-05-20T13:31:28.774Z,13.30
2019-05-20T13:33:57.884Z,14.40
2019-05-20T13:36:26.881Z,13.97
2019-05-20T13:38:55.820Z,13.90
2019-05-20T13:41:24.673Z,16.47
2019-05-20T13:43:53.532Z,16.07
2019-05-20T13:46:22.383Z,17.53
2019-05-20T13:48:51.306Z,17.37
2019-05-20T13:51:20.272Z,17.73
2019-05-20T13:53:49.471Z,18.17
2019-05-20T13:56:18.985Z,18.43
2019-05-20T13:58:47.833Z,18.20
2019-05-20T14:01:16.768Z,18.40
2019-05-20T14:03:45.712Z,17.33
2019-05-20T14:06:14.653Z,18.00
2019-05-20T14:08:43.497Z,18.27
2019-05-20T14:11:12.363Z,18.50
2019-05-20T14:13:41.357Z,19.00
2019-05-20T14:16:10.569Z,20.50
2019-05-20T14:18:39.817Z,21.27
2019-05-20T14:21:08.871Z,21.10
2019-05-20T14:23:37.940Z,20.33
2019-05-20T14:26:07.399Z,19.17
2019-05-20T14:28:36.393Z,21.90
2019-05-20T14:31:06.330Z,19.83
2019-05-20T14:33:35.698Z,18.93
2019-05-20T14:36:04.923Z,19.97
2019-05-20T14:38:33.954Z,24.90
2019-05-20T14:41:20.115Z,20.80
2019-05-20T14:43:34.261Z,22.40
2019-05-20T14:46:03.262Z,20.57
2019-05-20T14:48:32.763Z,23.13
2019-05-20T14:51:02.173Z,21.73
2019-05-20T14:53:31.973Z,22.77
2019-05-20T14:56:01.386Z,23.50
2019-05-20T14:58:31.079Z,22.97
2019-05-20T15:01:00.267Z,23.20
2019-05-20T15:03:29.278Z,22.90
2019-05-20T15:05:58.745Z,26.17
2019-05-20T15:08:27.939Z,22.60
2019-05-20T15:10:56.933Z,22.70
2019-05-20T15:13:26.217Z,21.53
2019-05-20T15:15:55.488Z,20.83
2019-05-20T15:18:25.051Z,23.47
2019-05-20T15:20:54.390Z,23.30
2019-05-20T15:23:24.158Z,21.77
2019-05-20T15:25:54.831Z,22.00
2019-05-20T15:28:23.971Z,21.10
2019-05-20T15:30:52.857Z,23.77
2019-05-20T15:33:22.152Z,23.10
2019-05-20T15:35:51.751Z,22.07
2019-05-20T15:38:20.981Z,25.27
2019-05-20T15:40:50.202Z,23.27
2019-05-20T15:43:19.317Z,20.43
2019-05-20T15:45:48.609Z,22.37
2019-05-20T15:48:17.985Z,21.30
2019-05-20T15:50:47.067Z,23.77
2019-05-20T15:53:15.919Z,22.63
2019-05-20T15:55:44.893Z,22.90
2019-05-20T15:58:13.946Z,22.30
2019-05-20T16:00:42.873Z,20.80
2019-05-20T16:03:11.958Z,21.63
2019-05-20T16:05:41.014Z,24.07
2019-05-20T16:08:09.984Z,22.37
2019-05-20T16:10:38.935Z,23.50
2019-05-20T16:13:07.913Z,22.67
2019-05-20T16:15:36.839Z,23.60
2019-05-20T16:18:05.789Z,22.90
2019-05-20T16:20:34.813Z,25.17
2019-05-20T16:23:03.675Z,23.50
2019-05-20T16:25:32.589Z,24.73
2019-05-20T16:28:01.524Z,22.90
2019-05-20T16:30:30.449Z,25.60
2019-05-20T16:32:59.661Z,24.47
2019-05-20T16:35:28.572Z,25.77
2019-05-20T16:37:57.445Z,26.70
2019-05-20T16:40:26.428Z,24.83
2019-05-20T16:42:55.770Z,25.40
2019-05-20T16:45:24.763Z,27.47
2019-05-20T16:47:54.473Z,27.00
2019-05-20T16:50:23.462Z,25.23
2019-05-20T16:52:52.326Z,25.10
2019-05-20T16:55:21.325Z,26.93
2019-05-20T16:57:50.706Z,25.30
2019-05-20T17:00:30.737Z,24.60
2019-05-20T17:02:50.686Z,26.50
2019-05-20T17:05:19.893Z,25.30
2019-05-20T17:07:48.836Z,24.27
2019-05-20T17:10:18.741Z,22.97
2019-05-20T17:12:47.600Z,23.10
2019-05-20T17:15:17.297Z,23.07
2019-05-20T17:17:46.303Z,23.43
2019-05-20T17:20:15.936Z,23.17
2019-05-20T17:22:45.193Z,23.33
2019-05-20T17:25:14.264Z,23.77
2019-05-20T17:27:43.117Z,22.97
2019-05-20T17:30:12.308Z,22.83
2019-05-20T17:32:41.326Z,21.97
2019-05-20T17:35:10.981Z,22.10
2019-05-20T17:37:40.181Z,21.83
2019-05-20T17:40:10.251Z,24.50
2019-05-20T17:42:39.193Z,21.63
2019-05-20T17:45:09.330Z,23.73
2019-05-20T17:47:38.346Z,23.60
2019-05-20T17:50:08.488Z,22.03
2019-05-20T17:52:37.416Z,22.57
2019-05-20T17:55:06.917Z,21.17
2019-05-20T17:57:35.869Z,24.27
2019-05-20T18:00:05.564Z,21.87
2019-05-20T18:02:34.558Z,22.60
2019-05-20T18:05:04.859Z,21.83
2019-05-20T18:07:34.044Z,19.23
2019-05-20T18:10:03.090Z,18.97
2019-05-20T18:12:32.076Z,19.90
2019-05-20T18:15:03.700Z,17.90
2019-05-20T18:17:32.884Z,18.30
2019-05-20T18:20:01.933Z,18.87
2019-05-20T18:22:30.828Z,19.10
2019-05-20T18:25:00.078Z,18.90
2019-05-20T18:27:29.071Z,16.87
2019-05-20T18:29:58.369Z,18.37
2019-05-20T18:32:27.292Z,17.70
2019-05-20T18:34:56.257Z,18.07
2019-05-20T18:37:25.100Z,17.30
2019-05-20T18:39:54.000Z,16.27
2019-05-20T18:42:23.113Z,17.23
2019-05-20T18:44:52.374Z,18.23
2019-05-20T18:47:21.318Z,17.30
2019-05-20T18:49:50.617Z,18.30
2019-05-20T18:52:19.553Z,17.23
2019-05-20T18:54:48.805Z,17.00
2019-05-20T18:57:17.942Z,17.30
2019-05-20T18:59:46.820Z,17.40
2019-05-20T19:02:15.817Z,16.40
2019-05-20T19:04:45.160Z,15.80
2019-05-20T19:07:14.407Z,15.57
2019-05-20T19:09:43.741Z,16.90
2019-05-20T19:12:12.985Z,16.47
2019-05-20T19:14:42.805Z,17.10
2019-05-20T19:17:11.797Z,16.20
2019-05-20T19:19:41.097Z,16.87
2019-05-20T19:22:11.061Z,16.90
2019-05-20T19:24:39.989Z,15.73
2019-05-20T19:27:08.909Z,15.23
2019-05-20T19:29:37.850Z,15.13
2019-05-20T19:32:07.331Z,16.03
2019-05-20T19:34:36.481Z,14.23
2019-05-20T19:37:05.805Z,14.90
2019-05-20T19:39:34.810Z,13.87
2019-05-20T19:42:03.742Z,14.03
2019-05-20T19:44:32.660Z,13.70
2019-05-20T19:47:01.601Z,13.53
2019-05-20T19:49:30.473Z,13.60
2019-05-20T19:51:59.502Z,14.13
2019-05-20T19:54:28.560Z,14.57
2019-05-20T19:56:57.433Z,13.90
2019-05-20T19:59:26.513Z,14.90
2019-05-20T20:01:55.771Z,15.33
2019-05-20T20:04:24.912Z,15.13
2019-05-20T20:06:54.639Z,15.70
2019-05-20T20:09:23.655Z,17.77
2019-05-20T20:11:52.744Z,16.20
2019-05-20T20:14:21.876Z,15.97
2019-05-20T20:16:51.418Z,17.13
2019-05-20T20:19:20.840Z,16.63
2019-05-20T20:21:55.371Z,16.50
2019-05-20T20:24:24.615Z,16.23
2019-05-20T20:26:53.950Z,15.97
2019-05-20T20:29:22.953Z,15.93
2019-05-20T20:31:52.276Z,15.83
2019-05-20T20:34:21.733Z,16.97
2019-05-20T20:36:50.786Z,16.00
2019-05-20T20:39:20.623Z,15.00
2019-05-20T20:41:49.626Z,13.67
2019-05-20T20:44:19.148Z,15.67
2019-05-20T20:46:48.608Z,13.77
2019-05-20T20:49:18.457Z,14.80
2019-05-20T20:51:47.700Z,14.43
2019-05-20T20:54:17.381Z,13.83
2019-05-20T20:56:46.433Z,14.53
2019-05-20T20:59:15.919Z,15.20
2019-05-20T21:01:45.169Z,15.03
2019-05-20T21:04:14.536Z,13.87
2019-05-20T21:06:43.800Z,13.63
2019-05-20T21:09:12.972Z,14.10
2019-05-20T21:11:42.563Z,14.43
2019-05-20T21:14:11.784Z,13.50
2019-05-20T21:16:40.904Z,13.40
2019-05-20T21:19:09.924Z,12.57
2019-05-20T21:21:39.099Z,12.83
2019-05-20T21:24:08.724Z,11.63
2019-05-20T21:26:37.665Z,12.60
2019-05-20T21:29:06.812Z,12.80
2019-05-20T21:31:35.777Z,11.90
2019-05-20T21:34:05.078Z,11.90
2019-05-20T21:36:46.579Z,13.10
2019-05-20T21:39:05.683Z,13.10
2019-05-20T21:41:34.695Z,12.57
2019-05-20T21:44:03.681Z,11.63
2019-05-20T21:46:32.933Z,12.40
2019-05-20T21:49:02.549Z,11.80
2019-05-20T21:51:31.973Z,12.60
2019-05-20T21:54:01.237Z,11.70
2019-05-20T21:56:30.551Z,12.53
2019-05-20T21:58:59.721Z,11.70
2019-05-20T22:01:29.126Z,12.20
2019-05-20T22:03:58.493Z,12.17
2019-05-20T22:06:27.574Z,11.33
2019-05-20T22:08:56.745Z,10.57
2019-05-20T22:11:26.045Z,11.60
2019-05-20T22:13:55.177Z,11.63
2019-05-20T22:16:24.733Z,11.07
2019-05-20T22:18:53.930Z,11.23
2019-05-20T22:21:27.625Z,11.50
2019-05-20T22:23:59.927Z,11.57
2019-05-20T22:26:28.764Z,11.80
2019-05-20T22:28:57.685Z,12.00
2019-05-20T22:31:26.988Z,13.10
2019-05-20T22:33:56.004Z,11.97
2019-05-20T22:36:25.121Z,12.20
2019-05-20T22:38:54.270Z,11.67
2019-05-20T22:41:23.185Z,10.53
2019-05-20T22:43:52.137Z,12.33
2019-05-20T22:46:21.121Z,13.70
2019-05-20T22:48:50.058Z,13.20
2019-05-20T22:51:18.974Z,14.07
2019-05-20T22:53:48.225Z,13.33
2019-05-20T22:56:17.149Z,13.03
2019-05-20T22:58:46.080Z,12.03
2019-05-20T23:01:14.940Z,11.53
2019-05-20T23:03:55.638Z,12.20
2019-05-20T23:06:14.441Z,12.57
2019-05-20T23:08:43.301Z,12.23
2019-05-20T23:11:12.426Z,12.67
2019-05-20T23:13:41.277Z,11.60
2019-05-20T23:16:10.126Z,12.57
2019-05-20T23:18:39.289Z,12.27
2019-05-20T23:21:08.212Z,13.40
2019-05-20T23:23:37.069Z,12.20
2019-05-20T23:26:06.065Z,11.60
2019-05-20T23:28:34.924Z,10.27
2019-05-20T23:31:03.814Z,10.60
2019-05-20T23:33:33.257Z,11.43
2019-05-20T23:36:02.256Z,9.93
2019-05-20T23:38:31.253Z,9.63
2019-05-20T23:41:00.454Z,9.97
2019-05-20T23:43:29.309Z,10.30
2019-05-20T23:45:58.600Z,11.07
2019-05-20T23:48:27.536Z,10.07
2019-05-20T23:50:56.457Z,9.30
2019-05-20T23:53:25.306Z,8.73
2019-05-20T23:55:54.161Z,9.30
2019-05-20T23:58:23.489Z,9.53
